createdAt,value
2019-03-30T00:00:35.586Z,3.20
2019-03-30T00:03:02.220Z,3.30
2019-03-30T00:05:28.909Z,3.30
2019-03-30T00:07:55.746Z,3.20
2019-03-30T00:10:22.306Z,3.20
2019-03-30T00:12:48.892Z,3.20
2019-03-30T00:15:15.794Z,3.10
2019-03-30T00:17:42.477Z,3.20
2019-03-30T00:20:08.994Z,3.10
2019-03-30T00:22:35.617Z,3.10
2019-03-30T00:25:03.958Z,3.00
2019-03-30T00:27:31.062Z,2.90
2019-03-30T00:29:57.633Z,3.00
2019-03-30T00:32:24.338Z,2.90
2019-03-30T00:34:50.923Z,2.90
2019-03-30T00:37:17.713Z,2.90
2019-03-30T00:39:44.343Z,2.80
2019-03-30T00:42:10.811Z,2.80
2019-03-30T00:44:37.551Z,2.90
2019-03-30T00:47:04.161Z,2.80
2019-03-30T00:49:30.942Z,2.80
2019-03-30T00:51:57.693Z,2.80
2019-03-30T00:54:24.353Z,2.80
2019-03-30T00:56:51.301Z,2.80
2019-03-30T00:59:18.021Z,2.70
2019-03-30T01:01:44.494Z,2.70
2019-03-30T01:04:11.258Z,2.70
2019-03-30T01:06:37.820Z,2.70
2019-03-30T01:09:05.458Z,2.60
2019-03-30T01:11:32.051Z,2.60
2019-03-30T01:13:58.644Z,2.60
2019-03-30T01:16:25.345Z,2.60
2019-03-30T01:18:51.924Z,2.50
2019-03-30T01:21:18.515Z,2.40
2019-03-30T01:23:46.171Z,2.40
2019-03-30T01:26:13.001Z,2.40
2019-03-30T01:28:39.563Z,2.40
2019-03-30T01:31:06.093Z,2.30
2019-03-30T01:33:32.647Z,2.20
2019-03-30T01:35:59.279Z,2.20
2019-03-30T01:38:26.058Z,2.30
2019-03-30T01:40:52.521Z,2.30
2019-03-30T01:43:20.189Z,2.30
2019-03-30T01:45:46.748Z,2.30
2019-03-30T01:48:14.301Z,2.30
2019-03-30T01:50:40.883Z,2.20
2019-03-30T01:53:07.493Z,2.20
2019-03-30T01:55:34.048Z,2.20
2019-03-30T01:58:00.813Z,2.20
2019-03-30T02:00:27.467Z,2.20
2019-03-30T02:02:53.963Z,2.10
2019-03-30T02:05:20.538Z,2.10
2019-03-30T02:07:47.096Z,2.10
2019-03-30T02:10:36.319Z,2.10
2019-03-30T02:13:03.010Z,2.10
2019-03-30T02:15:29.738Z,2.00
2019-03-30T02:17:56.440Z,2.00
2019-03-30T02:20:31.098Z,2.00
2019-03-30T02:22:55.141Z,2.00
2019-03-30T02:25:21.633Z,2.00
2019-03-30T02:27:48.191Z,1.90
2019-03-30T02:30:15.037Z,1.90
2019-03-30T02:32:41.610Z,1.80
2019-03-30T02:35:09.170Z,1.80
2019-03-30T02:37:36.005Z,1.80
2019-03-30T02:40:04.574Z,1.80
2019-03-30T02:42:31.034Z,1.80
2019-03-30T02:44:57.486Z,1.80
2019-03-30T02:47:23.998Z,1.70
2019-03-30T02:49:50.449Z,1.70
2019-03-30T02:52:17.096Z,1.80
2019-03-30T02:54:43.676Z,1.80
2019-03-30T02:57:10.210Z,1.70
2019-03-30T02:59:36.822Z,1.60
2019-03-30T03:02:03.513Z,1.60
2019-03-30T03:04:30.251Z,1.60
2019-03-30T03:06:56.736Z,1.60
2019-03-30T03:09:23.340Z,1.50
2019-03-30T03:11:49.964Z,1.50
2019-03-30T03:14:16.527Z,1.40
2019-03-30T03:16:43.221Z,1.40
2019-03-30T03:19:09.964Z,1.40
2019-03-30T03:21:36.525Z,1.30
2019-03-30T03:24:03.378Z,1.40
2019-03-30T03:26:29.907Z,1.50
2019-03-30T03:28:56.459Z,1.40
2019-03-30T03:31:22.968Z,1.40
2019-03-30T03:33:49.795Z,1.40
2019-03-30T03:36:16.485Z,1.40
2019-03-30T03:38:43.299Z,1.30
2019-03-30T03:41:09.813Z,1.30
2019-03-30T03:43:36.368Z,1.20
2019-03-30T03:46:02.948Z,1.20
2019-03-30T03:48:29.513Z,1.20
2019-03-30T03:50:59.041Z,1.10
2019-03-30T03:53:25.588Z,1.10
2019-03-30T03:55:52.153Z,1.10
2019-03-30T03:58:18.745Z,1.10
2019-03-30T04:00:45.369Z,1.20
2019-03-30T04:03:15.143Z,1.10
2019-03-30T04:05:44.507Z,1.10
2019-03-30T04:08:11.651Z,1.10
2019-03-30T04:10:38.207Z,1.00
2019-03-30T04:13:11.552Z,1.00
2019-03-30T04:15:38.227Z,0.90
2019-03-30T04:18:04.768Z,0.90
2019-03-30T04:20:31.434Z,1.00
2019-03-30T04:22:58.168Z,0.90
2019-03-30T04:25:25.711Z,0.90
2019-03-30T04:27:52.571Z,0.90
2019-03-30T04:30:19.153Z,0.90
2019-03-30T04:32:45.810Z,0.80
2019-03-30T04:35:12.377Z,0.90
2019-03-30T04:37:38.847Z,1.00
2019-03-30T04:40:05.389Z,0.90
2019-03-30T04:42:31.941Z,0.90
2019-03-30T04:44:58.420Z,0.90
2019-03-30T04:47:25.076Z,1.00
2019-03-30T04:49:51.833Z,0.90
2019-03-30T04:52:18.498Z,1.00
2019-03-30T04:54:44.995Z,0.90
2019-03-30T04:57:11.643Z,1.00
2019-03-30T04:59:38.251Z,1.00
2019-03-30T05:02:05.125Z,1.00
2019-03-30T05:04:31.782Z,1.00
2019-03-30T05:07:00.241Z,1.00
2019-03-30T05:09:26.849Z,0.90
2019-03-30T05:11:53.631Z,1.00
2019-03-30T05:14:20.251Z,1.00
2019-03-30T05:16:46.854Z,1.10
2019-03-30T05:19:14.407Z,1.10
2019-03-30T05:21:40.955Z,1.00
2019-03-30T05:24:07.511Z,1.10
2019-03-30T05:26:34.032Z,1.20
2019-03-30T05:29:00.580Z,1.20
2019-03-30T05:31:27.098Z,1.30
2019-03-30T05:33:53.656Z,1.40
2019-03-30T05:36:21.293Z,1.40
2019-03-30T05:38:47.945Z,1.40
2019-03-30T05:41:14.501Z,1.60
2019-03-30T05:43:42.112Z,1.70
2019-03-30T05:46:08.713Z,1.70
2019-03-30T05:48:35.383Z,1.90
2019-03-30T05:51:02.130Z,2.00
2019-03-30T05:53:28.591Z,2.10
2019-03-30T05:55:55.043Z,2.30
2019-03-30T05:58:21.708Z,2.40
2019-03-30T06:00:48.407Z,2.60
2019-03-30T06:03:15.074Z,2.70
2019-03-30T06:05:41.760Z,2.80
2019-03-30T06:08:08.328Z,3.00
2019-03-30T06:10:34.889Z,3.10
2019-03-30T06:13:01.372Z,3.30
2019-03-30T06:15:27.953Z,3.40
2019-03-30T06:17:54.506Z,3.50
2019-03-30T06:20:21.051Z,3.80
2019-03-30T06:22:47.631Z,4.00
2019-03-30T06:25:14.204Z,4.10
2019-03-30T06:27:40.778Z,4.20
2019-03-30T06:30:15.501Z,4.40
2019-03-30T06:32:43.563Z,4.50
2019-03-30T06:35:10.130Z,4.80
2019-03-30T06:37:36.847Z,5.00
2019-03-30T06:40:06.463Z,5.20
2019-03-30T06:42:33.132Z,5.30
2019-03-30T06:44:59.694Z,5.30
2019-03-30T06:47:26.296Z,5.50
2019-03-30T06:49:52.867Z,5.50
2019-03-30T06:52:19.449Z,5.60
2019-03-30T06:54:46.102Z,5.70
2019-03-30T06:57:12.570Z,5.80
2019-03-30T06:59:39.037Z,6.10
2019-03-30T07:02:05.691Z,6.30
2019-03-30T07:04:32.524Z,6.60
2019-03-30T07:06:59.070Z,6.80
2019-03-30T07:09:25.743Z,7.00
2019-03-30T07:11:52.381Z,7.10
2019-03-30T07:14:18.948Z,7.10
2019-03-30T07:16:45.675Z,7.40
2019-03-30T07:19:12.103Z,7.60
2019-03-30T07:21:38.673Z,7.80
2019-03-30T07:24:05.198Z,8.10
2019-03-30T07:26:32.853Z,8.10
2019-03-30T07:28:59.533Z,8.20
2019-03-30T07:31:26.127Z,8.50
2019-03-30T07:33:52.596Z,8.70
2019-03-30T07:36:19.140Z,8.70
2019-03-30T07:38:45.756Z,8.80
2019-03-30T07:41:12.302Z,9.00
2019-03-30T07:43:38.767Z,9.00
2019-03-30T07:46:05.548Z,8.90
2019-03-30T07:48:32.100Z,8.90
2019-03-30T07:50:58.687Z,9.50
2019-03-30T07:53:26.967Z,9.70
2019-03-30T07:56:07.403Z,10.00
2019-03-30T07:58:22.239Z,10.10
2019-03-30T08:00:48.725Z,10.60
2019-03-30T08:03:15.406Z,10.70
2019-03-30T08:05:41.995Z,11.00
2019-03-30T08:08:08.663Z,11.30
2019-03-30T08:10:35.381Z,11.60
2019-03-30T08:13:02.136Z,11.50
2019-03-30T08:15:28.749Z,11.40
2019-03-30T08:17:56.522Z,11.50
2019-03-30T08:20:23.116Z,11.70
2019-03-30T08:22:49.693Z,11.70
2019-03-30T08:25:16.422Z,11.70
2019-03-30T08:27:42.896Z,11.70
2019-03-30T08:30:09.417Z,12.00
2019-03-30T08:32:36.011Z,12.50
2019-03-30T08:35:03.973Z,12.70
2019-03-30T08:37:30.816Z,13.20
2019-03-30T08:39:57.459Z,13.20
2019-03-30T08:42:24.111Z,12.80
2019-03-30T08:44:50.702Z,13.20
2019-03-30T08:47:17.173Z,13.00
2019-03-30T08:49:43.855Z,13.20
2019-03-30T08:52:10.531Z,13.10
2019-03-30T08:54:36.963Z,13.70
2019-03-30T08:57:03.511Z,13.90
2019-03-30T08:59:30.517Z,14.90
2019-03-30T09:01:57.078Z,14.60
2019-03-30T09:04:23.587Z,14.50
2019-03-30T09:06:50.157Z,15.10
2019-03-30T09:09:16.821Z,14.90
2019-03-30T09:11:43.847Z,15.30
2019-03-30T09:14:10.465Z,15.50
2019-03-30T09:16:37.062Z,16.20
2019-03-30T09:19:03.816Z,16.60
2019-03-30T09:21:30.408Z,16.30
2019-03-30T09:24:09.041Z,16.00
2019-03-30T09:26:25.437Z,15.90
2019-03-30T09:28:52.078Z,16.40
2019-03-30T09:31:18.690Z,16.20
2019-03-30T09:33:45.132Z,16.70
2019-03-30T09:36:11.951Z,16.60
2019-03-30T09:38:38.660Z,16.40
2019-03-30T09:41:05.310Z,16.50
2019-03-30T09:43:31.863Z,16.80
2019-03-30T09:45:58.555Z,20.00
2019-03-30T09:48:25.243Z,23.30
2019-03-30T09:50:51.913Z,25.20
2019-03-30T09:53:18.597Z,24.40
2019-03-30T09:55:45.172Z,26.80
2019-03-30T09:58:11.861Z,26.20
2019-03-30T10:00:39.547Z,26.60
2019-03-30T10:03:06.510Z,26.50
2019-03-30T10:05:33.126Z,25.80
2019-03-30T10:07:59.739Z,26.40
2019-03-30T10:10:26.389Z,23.40
2019-03-30T10:12:53.341Z,25.80
2019-03-30T10:15:20.164Z,27.50
2019-03-30T10:17:46.817Z,27.50
2019-03-30T10:20:13.684Z,26.60
2019-03-30T10:22:42.119Z,28.50
2019-03-30T10:25:08.879Z,29.90
2019-03-30T10:27:35.755Z,26.50
2019-03-30T10:30:03.519Z,25.60
2019-03-30T10:32:30.082Z,25.00
2019-03-30T10:34:57.254Z,25.30
2019-03-30T10:37:23.872Z,25.60
2019-03-30T10:39:51.501Z,25.50
2019-03-30T10:42:19.297Z,25.10
2019-03-30T10:44:45.986Z,25.40
2019-03-30T10:47:12.659Z,24.60
2019-03-30T10:49:39.204Z,26.10
2019-03-30T10:52:05.791Z,25.20
2019-03-30T10:54:34.726Z,26.30
2019-03-30T10:57:01.539Z,26.90
2019-03-30T10:59:28.572Z,27.50
2019-03-30T11:01:55.145Z,28.00
2019-03-30T11:04:21.939Z,28.60
2019-03-30T11:06:48.398Z,28.60
2019-03-30T11:09:15.145Z,30.60
2019-03-30T11:11:41.723Z,32.70
2019-03-30T11:14:08.819Z,31.20
2019-03-30T11:16:35.828Z,30.30
2019-03-30T11:19:02.905Z,30.30
2019-03-30T11:21:29.727Z,30.10
2019-03-30T11:23:56.303Z,28.50
2019-03-30T11:26:23.000Z,27.80
2019-03-30T11:28:49.968Z,28.00
2019-03-30T11:31:16.515Z,31.30
2019-03-30T11:33:43.234Z,31.30
2019-03-30T11:36:10.186Z,29.50
2019-03-30T11:38:36.826Z,31.00
2019-03-30T11:41:03.692Z,29.80
2019-03-30T11:43:30.407Z,28.20
2019-03-30T11:45:56.923Z,28.20
2019-03-30T11:48:23.523Z,30.60
2019-03-30T11:50:50.316Z,31.40
2019-03-30T11:53:17.081Z,32.30
2019-03-30T11:55:43.968Z,31.90
2019-03-30T11:58:10.496Z,30.30
2019-03-30T12:00:37.189Z,30.10
2019-03-30T12:03:06.305Z,29.50
2019-03-30T12:05:32.889Z,29.80
2019-03-30T12:07:59.447Z,28.50
2019-03-30T12:10:26.186Z,28.50
2019-03-30T12:12:52.763Z,31.10
2019-03-30T12:15:19.476Z,29.90
2019-03-30T12:17:46.360Z,30.20
2019-03-30T12:20:13.078Z,32.50
2019-03-30T12:22:39.809Z,30.50
2019-03-30T12:25:06.269Z,30.00
2019-03-30T12:27:32.938Z,31.80
2019-03-30T12:29:59.534Z,32.10
2019-03-30T12:32:26.327Z,30.20
2019-03-30T12:34:52.906Z,30.90
2019-03-30T12:37:19.346Z,30.60
2019-03-30T12:39:46.019Z,31.10
2019-03-30T12:42:12.771Z,30.70
2019-03-30T12:44:39.372Z,32.00
2019-03-30T12:47:06.051Z,31.60
2019-03-30T12:49:32.522Z,32.20
2019-03-30T12:52:00.072Z,30.00
2019-03-30T12:54:26.516Z,28.50
2019-03-30T12:56:53.110Z,29.20
2019-03-30T12:59:19.743Z,30.50
2019-03-30T13:01:46.215Z,29.80
2019-03-30T13:04:12.883Z,28.10
2019-03-30T13:06:39.437Z,29.70
2019-03-30T13:09:09.019Z,30.80
2019-03-30T13:11:36.863Z,31.70
2019-03-30T13:14:03.406Z,30.20
2019-03-30T13:16:30.027Z,28.50
2019-03-30T13:18:56.598Z,27.00
2019-03-30T13:21:23.433Z,28.40
2019-03-30T13:23:49.929Z,29.60
2019-03-30T13:26:16.502Z,28.00
2019-03-30T13:28:43.694Z,27.10
2019-03-30T13:31:10.416Z,25.70
2019-03-30T13:33:36.879Z,27.70
2019-03-30T13:36:03.754Z,26.50
2019-03-30T13:38:30.307Z,25.20
2019-03-30T13:40:56.760Z,25.00
2019-03-30T13:43:23.412Z,24.50
2019-03-30T13:45:50.235Z,24.40
2019-03-30T13:48:17.021Z,23.80
2019-03-30T13:50:43.507Z,24.00
2019-03-30T13:53:10.158Z,23.70
2019-03-30T13:55:36.834Z,23.60
2019-03-30T13:58:03.493Z,22.20
2019-03-30T14:00:30.138Z,22.50
2019-03-30T14:02:56.800Z,22.60
2019-03-30T14:05:24.452Z,21.80
2019-03-30T14:07:51.107Z,21.80
2019-03-30T14:10:17.780Z,20.90
2019-03-30T14:12:44.327Z,20.50
2019-03-30T14:15:10.980Z,20.80
2019-03-30T14:17:37.675Z,20.70
2019-03-30T14:20:05.741Z,20.40
2019-03-30T14:22:32.415Z,20.10
2019-03-30T14:24:58.977Z,20.00
2019-03-30T14:27:25.650Z,19.80
2019-03-30T14:29:54.371Z,19.60
2019-03-30T14:32:21.699Z,19.50
2019-03-30T14:34:48.630Z,19.40
2019-03-30T14:37:17.240Z,19.60
2019-03-30T14:39:43.904Z,19.40
2019-03-30T14:42:10.464Z,19.50
2019-03-30T14:44:36.922Z,19.90
2019-03-30T14:47:03.581Z,19.70
2019-03-30T14:49:30.183Z,19.40
2019-03-30T14:51:56.875Z,19.60
2019-03-30T14:54:23.767Z,19.70
2019-03-30T14:56:50.605Z,19.20
2019-03-30T14:59:17.072Z,18.90
2019-03-30T15:01:43.751Z,18.80
2019-03-30T15:04:10.420Z,18.80
2019-03-30T15:06:37.167Z,18.80
2019-03-30T15:09:05.037Z,18.70
2019-03-30T15:11:33.280Z,18.50
2019-03-30T15:14:00.031Z,18.80
2019-03-30T15:16:26.580Z,18.80
2019-03-30T15:18:53.256Z,19.30
2019-03-30T15:21:19.915Z,19.20
2019-03-30T15:23:46.367Z,19.10
2019-03-30T15:26:13.168Z,19.30
2019-03-30T15:28:42.657Z,19.50
2019-03-30T15:31:08.344Z,19.30
2019-03-30T15:33:34.906Z,19.10
2019-03-30T15:36:01.568Z,19.00
2019-03-30T15:38:29.279Z,19.00
2019-03-30T15:40:55.950Z,19.30
2019-03-30T15:43:37.148Z,19.10
2019-03-30T15:45:51.154Z,19.20
2019-03-30T15:48:17.768Z,19.20
2019-03-30T15:50:44.202Z,19.10
2019-03-30T15:53:10.867Z,18.90
2019-03-30T15:55:37.608Z,19.10
2019-03-30T15:58:04.165Z,19.00
2019-03-30T16:00:30.924Z,18.70
2019-03-30T16:02:57.607Z,18.50
2019-03-30T16:05:24.060Z,18.30
2019-03-30T16:07:50.934Z,18.20
2019-03-30T16:10:17.606Z,18.20
2019-03-30T16:12:44.168Z,18.20
2019-03-30T16:15:10.741Z,18.20
2019-03-30T16:17:37.567Z,18.10
2019-03-30T16:20:07.445Z,18.10
2019-03-30T16:22:34.283Z,18.00
2019-03-30T16:25:00.969Z,17.90
2019-03-30T16:27:29.219Z,17.70
2019-03-30T16:29:58.624Z,17.50
2019-03-30T16:32:24.741Z,17.20
2019-03-30T16:34:51.335Z,17.10
2019-03-30T16:37:17.997Z,16.80
2019-03-30T16:39:44.566Z,16.60
2019-03-30T16:42:11.199Z,16.30
2019-03-30T16:44:38.872Z,16.10
2019-03-30T16:47:05.435Z,16.00
2019-03-30T16:49:32.002Z,16.00
2019-03-30T16:51:58.663Z,15.70
2019-03-30T16:54:25.358Z,15.40
2019-03-30T16:56:52.163Z,15.00
2019-03-30T16:59:18.826Z,14.80
2019-03-30T17:01:45.424Z,14.60
2019-03-30T17:04:12.125Z,14.50
2019-03-30T17:06:38.683Z,14.40
2019-03-30T17:09:05.562Z,14.20
2019-03-30T17:11:32.106Z,14.00
2019-03-30T17:13:59.851Z,13.90
2019-03-30T17:16:26.551Z,13.70
2019-03-30T17:18:53.180Z,13.60
2019-03-30T17:21:19.867Z,13.50
2019-03-30T17:23:46.562Z,13.40
2019-03-30T17:26:13.212Z,13.10
2019-03-30T17:28:39.965Z,12.80
2019-03-30T17:31:06.697Z,12.70
2019-03-30T17:33:33.357Z,12.60
2019-03-30T17:36:00.042Z,12.60
2019-03-30T17:38:27.944Z,12.40
2019-03-30T17:40:54.482Z,12.10
2019-03-30T17:43:20.933Z,11.90
2019-03-30T17:45:47.785Z,11.70
2019-03-30T17:48:14.217Z,11.60
2019-03-30T17:50:40.711Z,11.60
2019-03-30T17:53:07.402Z,11.50
2019-03-30T17:55:34.422Z,11.50
2019-03-30T17:58:12.279Z,11.40
2019-03-30T18:00:29.909Z,11.40
2019-03-30T18:02:56.312Z,11.30
2019-03-30T18:05:23.982Z,11.20
2019-03-30T18:07:50.674Z,11.10
2019-03-30T18:10:17.153Z,11.00
2019-03-30T18:12:43.809Z,10.90
2019-03-30T18:15:10.510Z,10.70
2019-03-30T18:17:37.185Z,10.60
2019-03-30T18:20:05.196Z,10.60
2019-03-30T18:22:31.849Z,10.50
2019-03-30T18:24:58.524Z,10.40
2019-03-30T18:27:25.219Z,10.30
2019-03-30T18:29:52.973Z,10.20
2019-03-30T18:32:20.638Z,10.10
2019-03-30T18:34:47.233Z,10.00
2019-03-30T18:37:13.970Z,10.00
2019-03-30T18:39:40.503Z,10.00
2019-03-30T18:42:07.080Z,10.00
2019-03-30T18:44:33.760Z,10.00
2019-03-30T18:47:00.312Z,9.80
2019-03-30T18:49:27.999Z,9.80
2019-03-30T18:51:54.683Z,9.70
2019-03-30T18:54:21.358Z,9.60
2019-03-30T18:56:48.078Z,9.50
2019-03-30T18:59:14.873Z,9.50
2019-03-30T19:01:41.535Z,9.40
2019-03-30T19:04:08.205Z,9.40
2019-03-30T19:06:34.883Z,9.20
2019-03-30T19:09:01.540Z,9.30
2019-03-30T19:11:30.171Z,9.30
2019-03-30T19:13:56.708Z,9.20
2019-03-30T19:16:23.384Z,9.20
2019-03-30T19:18:49.941Z,9.10
2019-03-30T19:21:16.503Z,9.00
2019-03-30T19:23:43.081Z,8.90
2019-03-30T19:26:09.752Z,9.00
2019-03-30T19:28:36.561Z,8.80
2019-03-30T19:31:03.118Z,8.80
2019-03-30T19:33:30.132Z,8.80
2019-03-30T19:35:56.840Z,8.70
2019-03-30T19:38:25.176Z,8.70
2019-03-30T19:40:51.757Z,8.60
2019-03-30T19:43:18.440Z,8.50
2019-03-30T19:45:44.986Z,8.40
2019-03-30T19:48:11.844Z,8.40
2019-03-30T19:50:38.738Z,8.40
2019-03-30T19:53:05.939Z,8.40
2019-03-30T19:55:33.930Z,8.30
2019-03-30T19:58:00.511Z,8.20
2019-03-30T20:00:27.090Z,8.30
2019-03-30T20:02:54.256Z,8.20
2019-03-30T20:05:21.190Z,8.10
2019-03-30T20:07:47.879Z,8.10
2019-03-30T20:10:14.652Z,8.10
2019-03-30T20:12:41.239Z,8.00
2019-03-30T20:15:07.903Z,8.00
2019-03-30T20:17:34.590Z,8.00
2019-03-30T20:20:01.285Z,7.90
2019-03-30T20:22:27.875Z,7.70
2019-03-30T20:24:54.525Z,7.70
2019-03-30T20:27:21.108Z,7.60
2019-03-30T20:29:47.660Z,7.60
2019-03-30T20:32:14.221Z,7.50
2019-03-30T20:34:40.825Z,7.50
2019-03-30T20:37:07.617Z,7.50
2019-03-30T20:39:34.200Z,7.30
2019-03-30T20:42:00.878Z,7.30
2019-03-30T20:44:27.529Z,7.30
2019-03-30T20:46:55.435Z,7.40
2019-03-30T20:49:22.622Z,7.30
2019-03-30T20:51:49.547Z,7.10
2019-03-30T20:54:16.251Z,7.10
2019-03-30T20:56:44.090Z,7.10
2019-03-30T20:59:10.757Z,6.90
2019-03-30T21:01:38.502Z,6.90
2019-03-30T21:04:05.328Z,6.90
2019-03-30T21:06:31.998Z,7.00
2019-03-30T21:08:58.665Z,6.90
2019-03-30T21:11:25.288Z,6.90
2019-03-30T21:13:52.039Z,6.90
2019-03-30T21:16:18.812Z,6.90
2019-03-30T21:18:45.431Z,6.80
2019-03-30T21:21:12.009Z,6.70
2019-03-30T21:23:38.608Z,6.70
2019-03-30T21:26:05.404Z,6.70
2019-03-30T21:28:32.037Z,6.70
2019-03-30T21:30:59.913Z,6.70
2019-03-30T21:33:26.481Z,6.60
2019-03-30T21:35:53.053Z,6.50
2019-03-30T21:38:19.868Z,6.50
2019-03-30T21:40:46.433Z,6.50
2019-03-30T21:43:13.095Z,6.60
2019-03-30T21:45:39.791Z,6.50
2019-03-30T21:48:06.312Z,6.40
2019-03-30T21:50:32.978Z,6.40
2019-03-30T21:53:00.843Z,6.30
2019-03-30T21:55:27.838Z,6.20
2019-03-30T21:57:54.537Z,6.10
2019-03-30T22:00:35.718Z,6.00
2019-03-30T22:03:02.748Z,6.00
2019-03-30T22:05:29.453Z,6.00
2019-03-30T22:07:56.132Z,5.90
2019-03-30T22:10:26.256Z,5.80
2019-03-30T22:12:52.713Z,5.80
2019-03-30T22:15:26.255Z,5.90
2019-03-30T22:17:53.053Z,5.90
2019-03-30T22:20:21.293Z,5.90
2019-03-30T22:22:47.950Z,5.90
2019-03-30T22:25:14.405Z,5.80
2019-03-30T22:27:40.891Z,5.70
2019-03-30T22:30:07.537Z,5.70
2019-03-30T22:32:34.364Z,5.60
2019-03-30T22:35:01.219Z,5.60
2019-03-30T22:37:28.743Z,5.70
2019-03-30T22:39:55.273Z,5.60
2019-03-30T22:42:21.914Z,5.50
2019-03-30T22:44:48.587Z,5.40
2019-03-30T22:47:15.171Z,5.50
2019-03-30T22:49:41.842Z,5.40
2019-03-30T22:52:08.352Z,5.50
2019-03-30T22:54:34.958Z,5.50
2019-03-30T22:57:01.548Z,5.40
2019-03-30T22:59:28.112Z,5.30
2019-03-30T23:01:54.698Z,5.30
2019-03-30T23:04:21.560Z,5.30
2019-03-30T23:06:48.050Z,5.30
2019-03-30T23:09:14.516Z,5.30
2019-03-30T23:11:41.242Z,5.30
2019-03-30T23:14:07.928Z,5.20
2019-03-30T23:16:35.969Z,5.20
2019-03-30T23:19:02.370Z,5.10
2019-03-30T23:21:29.401Z,5.10
2019-03-30T23:23:56.115Z,5.10
2019-03-30T23:26:22.702Z,5.10
2019-03-30T23:28:49.485Z,5.10
2019-03-30T23:31:16.220Z,5.20
2019-03-30T23:33:42.766Z,5.10
2019-03-30T23:36:09.573Z,5.10
2019-03-30T23:38:36.334Z,5.10
2019-03-30T23:41:02.893Z,5.00
2019-03-30T23:43:29.490Z,5.00
2019-03-30T23:45:56.192Z,4.90
2019-03-30T23:48:22.741Z,4.90
2019-03-30T23:50:49.323Z,4.90
2019-03-30T23:53:15.977Z,4.80
2019-03-30T23:55:42.478Z,4.70
2019-03-30T23:58:09.058Z,4.70
